createdAt,value
2018-03-24T00:00:16.270Z,26.37
2018-03-24T00:02:51.357Z,24.03
2018-03-24T00:05:25.482Z,26.83
2018-03-24T00:07:59.330Z,24.07
2018-03-24T00:10:34.252Z,26.07
2018-03-24T00:13:09.333Z,25.77
2018-03-24T00:15:43.974Z,23.83
2018-03-24T00:18:17.714Z,24.40
2018-03-24T00:20:52.147Z,25.20
2018-03-24T00:23:26.795Z,25.13
2018-03-24T00:26:02.028Z,26.27
2018-03-24T00:28:37.097Z,25.77
2018-03-24T00:31:11.957Z,27.00
2018-03-24T00:33:45.779Z,25.03
2018-03-24T00:36:19.902Z,25.33
2018-03-24T00:38:55.300Z,25.53
2018-03-24T00:41:29.846Z,24.60
2018-03-24T00:44:04.393Z,24.10
2018-03-24T00:46:38.385Z,23.40
2018-03-24T00:49:12.873Z,26.40
2018-03-24T00:51:47.910Z,25.60
2018-03-24T00:54:22.414Z,26.27
2018-03-24T00:56:56.513Z,26.67
2018-03-24T00:59:30.712Z,25.00
2018-03-24T01:02:05.626Z,25.93
2018-03-24T01:04:40.177Z,28.13
2018-03-24T01:07:14.784Z,25.97
2018-03-24T01:09:49.373Z,26.27
2018-03-24T01:12:23.601Z,26.43
2018-03-24T01:14:58.402Z,27.53
2018-03-24T01:17:32.279Z,25.63
2018-03-24T01:20:06.554Z,24.70
2018-03-24T01:22:41.752Z,27.23
2018-03-24T01:25:16.571Z,25.70
2018-03-24T01:27:51.156Z,28.37
2018-03-24T01:30:25.454Z,27.47
2018-03-24T01:33:00.027Z,28.40
2018-03-24T01:35:33.729Z,28.07
2018-03-24T01:38:07.734Z,24.60
2018-03-24T01:40:42.503Z,26.77
2018-03-24T01:43:16.642Z,25.60
2018-03-24T01:45:51.557Z,25.77
2018-03-24T01:51:16.826Z,26.53
2018-03-24T01:53:53.466Z,27.87
2018-03-24T01:56:27.782Z,28.93
2018-03-24T01:59:02.212Z,28.33
2018-03-24T02:01:36.844Z,26.53
2018-03-24T02:04:11.658Z,27.90
2018-03-24T02:06:45.443Z,25.57
2018-03-24T02:09:19.573Z,30.57
2018-03-24T02:11:54.194Z,29.37
2018-03-24T02:14:28.493Z,28.60
2018-03-24T02:17:02.419Z,26.83
2018-03-24T02:19:36.648Z,29.83
2018-03-24T02:22:11.364Z,28.13
2018-03-24T02:24:48.439Z,27.07
2018-03-24T02:27:23.086Z,29.10
2018-03-24T02:29:58.013Z,29.33
2018-03-24T02:32:32.449Z,29.47
2018-03-24T02:35:06.343Z,29.47
2018-03-24T02:37:41.781Z,28.10
2018-03-24T02:40:16.446Z,28.73
2018-03-24T02:42:50.111Z,29.77
2018-03-24T02:45:23.935Z,28.90
2018-03-24T02:47:57.688Z,28.23
2018-03-24T02:50:32.052Z,31.47
2018-03-24T02:53:06.550Z,29.10
2018-03-24T02:55:40.529Z,30.57
2018-03-24T02:58:14.431Z,27.03
2018-03-24T03:00:48.802Z,28.80
2018-03-24T03:03:24.375Z,30.87
2018-03-24T03:05:58.353Z,30.00
2018-03-24T03:08:32.953Z,28.83
2018-03-24T03:11:07.506Z,29.37
2018-03-24T03:13:41.750Z,28.87
2018-03-24T03:16:16.930Z,27.73
2018-03-24T03:18:50.773Z,28.17
2018-03-24T03:21:24.922Z,29.73
2018-03-24T03:23:59.574Z,28.60
2018-03-24T03:26:34.132Z,29.93
2018-03-24T03:29:08.146Z,29.10
2018-03-24T03:31:46.660Z,28.83
2018-03-24T03:34:21.226Z,28.53
2018-03-24T03:36:55.391Z,30.23
2018-03-24T03:39:29.522Z,35.40
2018-03-24T03:42:04.025Z,29.10
2018-03-24T03:44:39.338Z,29.93
2018-03-24T03:47:14.526Z,32.10
2018-03-24T03:49:49.301Z,29.30
2018-03-24T03:52:23.759Z,29.47
2018-03-24T03:54:57.471Z,30.67
2018-03-24T03:57:31.498Z,30.57
2018-03-24T04:00:05.126Z,30.23
2018-03-24T04:02:39.689Z,28.30
2018-03-24T04:05:13.761Z,27.47
2018-03-24T04:07:47.822Z,27.23
2018-03-24T04:10:22.367Z,29.43
2018-03-24T04:12:56.025Z,29.60
2018-03-24T04:15:29.811Z,27.30
2018-03-24T04:18:04.261Z,27.80
2018-03-24T04:20:38.370Z,28.90
2018-03-24T04:23:12.913Z,27.07
2018-03-24T04:25:47.170Z,26.97
2018-03-24T04:28:21.437Z,28.17
2018-03-24T04:30:55.976Z,27.80
2018-03-24T04:33:30.585Z,26.70
2018-03-24T04:36:04.285Z,27.97
2018-03-24T04:38:38.382Z,27.03
2018-03-24T04:41:12.374Z,28.30
2018-03-24T04:43:46.726Z,26.73
2018-03-24T04:46:21.437Z,25.63
2018-03-24T04:48:55.618Z,29.30
2018-03-24T04:51:29.442Z,28.00
2018-03-24T04:54:03.493Z,26.97
2018-03-24T04:56:38.893Z,26.07
2018-03-24T04:59:13.244Z,29.77
2018-03-24T05:01:46.957Z,27.00
2018-03-24T05:04:22.865Z,27.60
2018-03-24T05:06:56.684Z,27.20
2018-03-24T05:09:30.490Z,27.07
2018-03-24T05:12:04.088Z,28.93
2018-03-24T05:14:38.435Z,28.47
2018-03-24T05:17:12.466Z,29.77
2018-03-24T05:19:47.519Z,28.70
2018-03-24T05:22:22.056Z,30.23
2018-03-24T05:24:56.446Z,30.17
2018-03-24T05:27:30.856Z,29.97
2018-03-24T05:30:05.577Z,31.37
2018-03-24T05:32:40.704Z,34.23
2018-03-24T05:35:14.998Z,32.87
2018-03-24T05:37:48.738Z,35.87
2018-03-24T05:40:22.822Z,33.53
2018-03-24T05:42:56.646Z,33.63
2018-03-24T05:45:30.614Z,33.90
2018-03-24T05:48:04.431Z,33.40
2018-03-24T05:50:38.674Z,31.00
2018-03-24T05:53:12.943Z,29.97
2018-03-24T05:55:47.557Z,33.87
2018-03-24T05:58:21.495Z,30.47
2018-03-24T06:00:55.395Z,31.47
2018-03-24T06:03:30.633Z,28.90
2018-03-24T06:06:05.097Z,29.47
2018-03-24T06:08:41.165Z,28.90
2018-03-24T06:11:15.945Z,30.20
2018-03-24T06:13:49.645Z,30.27
2018-03-24T06:16:24.314Z,30.07
2018-03-24T06:18:59.424Z,31.13
2018-03-24T06:21:33.614Z,30.87
2018-03-24T06:24:08.696Z,29.50
2018-03-24T06:26:44.683Z,28.93
2018-03-24T06:29:19.863Z,26.67
2018-03-24T06:31:54.522Z,28.47
2018-03-24T06:34:29.024Z,30.17
2018-03-24T06:37:22.474Z,30.43
2018-03-24T06:39:57.962Z,28.63
2018-03-24T06:42:31.966Z,29.87
2018-03-24T06:45:06.498Z,33.03
2018-03-24T06:47:40.319Z,27.70
2018-03-24T06:50:14.159Z,31.23
2018-03-24T06:52:49.332Z,28.70
2018-03-24T06:55:24.678Z,31.13
2018-03-24T06:57:59.774Z,29.13
2018-03-24T07:00:33.717Z,28.37
2018-03-24T07:03:07.939Z,30.57
2018-03-24T07:05:41.626Z,26.80
2018-03-24T07:08:15.587Z,25.17
2018-03-24T07:10:49.513Z,27.63
2018-03-24T07:13:23.690Z,25.93
2018-03-24T07:15:58.101Z,27.00
2018-03-24T07:18:32.022Z,24.20
2018-03-24T07:21:06.322Z,29.63
2018-03-24T07:23:40.810Z,26.10
2018-03-24T07:26:14.545Z,22.00
2018-03-24T07:28:48.467Z,30.27
2018-03-24T07:31:22.407Z,26.43
2018-03-24T07:33:56.305Z,23.87
2018-03-24T07:36:30.170Z,24.80
2018-03-24T07:39:04.361Z,26.40
2018-03-24T07:41:39.026Z,24.27
2018-03-24T07:44:12.898Z,25.33
2018-03-24T07:46:48.293Z,20.53
2018-03-24T07:49:22.367Z,22.13
2018-03-24T07:51:56.966Z,25.50
2018-03-24T07:54:31.526Z,23.33
2018-03-24T07:57:06.067Z,21.40
2018-03-24T07:59:46.421Z,21.37
2018-03-24T08:02:20.941Z,24.37
2018-03-24T08:04:55.455Z,18.43
2018-03-24T08:07:29.630Z,20.90
2018-03-24T08:10:03.691Z,19.00
2018-03-24T08:12:38.126Z,19.73
2018-03-24T08:15:12.539Z,19.53
2018-03-24T08:17:46.946Z,20.87
2018-03-24T08:20:21.213Z,22.40
2018-03-24T08:22:55.027Z,20.40
2018-03-24T08:25:29.543Z,21.63
2018-03-24T08:28:03.307Z,23.27
2018-03-24T08:30:37.457Z,22.03
2018-03-24T08:33:11.389Z,20.97
2018-03-24T08:35:45.141Z,19.17
2018-03-24T08:38:18.994Z,23.87
2018-03-24T08:40:53.318Z,22.53
2018-03-24T08:43:27.059Z,19.40
2018-03-24T08:46:01.103Z,22.23
2018-03-24T08:48:35.058Z,25.93
2018-03-24T08:51:09.704Z,20.87
2018-03-24T08:53:44.589Z,24.13
2018-03-24T08:56:19.050Z,21.57
2018-03-24T08:58:53.533Z,19.07
2018-03-24T09:01:28.006Z,17.77
2018-03-24T09:04:02.221Z,16.73
2018-03-24T09:06:36.944Z,16.50
2018-03-24T09:09:12.048Z,17.17
2018-03-24T09:11:46.886Z,12.43
2018-03-24T09:14:22.306Z,14.83
2018-03-24T09:16:56.805Z,13.97
2018-03-24T09:19:31.467Z,12.23
2018-03-24T09:22:05.273Z,12.93
2018-03-24T09:24:39.034Z,12.60
2018-03-24T09:27:14.732Z,10.50
2018-03-24T09:29:48.723Z,10.40
2018-03-24T09:32:23.594Z,10.27
2018-03-24T09:34:57.985Z,11.67
2018-03-24T09:37:31.890Z,11.33
2018-03-24T09:40:06.472Z,14.13
2018-03-24T09:42:41.711Z,11.13
2018-03-24T09:45:15.507Z,10.73
2018-03-24T09:47:49.900Z,10.77
2018-03-24T09:50:24.485Z,9.73
2018-03-24T09:52:58.534Z,10.47
2018-03-24T09:55:32.413Z,13.53
2018-03-24T09:58:06.584Z,14.30
2018-03-24T10:00:41.970Z,14.47
2018-03-24T10:03:16.034Z,12.67
2018-03-24T10:05:49.776Z,11.37
2018-03-24T10:08:24.979Z,13.93
2018-03-24T10:10:58.984Z,16.40
2018-03-24T10:13:33.482Z,11.17
2018-03-24T10:16:08.388Z,12.93
2018-03-24T10:18:42.483Z,12.27
2018-03-24T10:21:40.019Z,13.53
2018-03-24T10:24:21.061Z,14.00
2018-03-24T10:26:55.284Z,10.20
2018-03-24T10:29:29.070Z,14.70
2018-03-24T10:32:03.693Z,13.53
2018-03-24T10:34:37.740Z,16.87
2018-03-24T10:37:11.841Z,11.27
2018-03-24T10:39:45.794Z,13.27
2018-03-24T10:42:20.446Z,11.43
2018-03-24T10:44:55.598Z,15.13
2018-03-24T10:47:29.824Z,13.33
2018-03-24T10:50:04.553Z,13.17
2018-03-24T10:52:38.879Z,15.70
2018-03-24T10:55:13.130Z,13.70
2018-03-24T10:57:46.953Z,11.10
2018-03-24T11:00:21.212Z,15.37
2018-03-24T11:02:55.848Z,14.07
2018-03-24T11:05:30.008Z,11.73
2018-03-24T11:08:04.732Z,15.67
2018-03-24T11:10:38.831Z,17.80
2018-03-24T11:13:12.549Z,15.50
2018-03-24T11:15:47.308Z,22.47
2018-03-24T11:18:21.847Z,20.80
2018-03-24T11:20:55.916Z,20.37
2018-03-24T11:23:29.745Z,35.13
2018-03-24T11:26:03.582Z,25.07
2018-03-24T11:28:38.159Z,15.20
2018-03-24T11:31:12.499Z,18.43
2018-03-24T11:33:47.060Z,35.87
2018-03-24T11:36:20.966Z,35.63
2018-03-24T11:38:56.048Z,26.27
2018-03-24T11:41:30.505Z,18.27
2018-03-24T11:44:05.705Z,33.17
2018-03-24T11:46:41.170Z,45.07
2018-03-24T11:49:15.985Z,40.47
2018-03-24T11:51:50.556Z,33.17
2018-03-24T11:54:36.256Z,22.17
2018-03-24T11:57:10.533Z,22.87
2018-03-24T11:59:44.782Z,43.43
2018-03-24T12:02:19.804Z,77.63
2018-03-24T12:04:54.572Z,50.87
2018-03-24T12:07:28.964Z,90.43
2018-03-24T12:10:02.734Z,27.87
2018-03-24T12:12:37.365Z,32.30
2018-03-24T12:15:11.833Z,44.50
2018-03-24T12:17:46.370Z,38.63
2018-03-24T12:20:20.445Z,39.67
2018-03-24T12:22:55.208Z,39.07
2018-03-24T12:25:29.822Z,19.13
2018-03-24T12:28:04.380Z,25.17
2018-03-24T12:30:39.793Z,35.77
2018-03-24T12:33:14.787Z,31.57
2018-03-24T12:35:49.036Z,21.57
2018-03-24T12:38:24.105Z,27.57
2018-03-24T12:40:59.654Z,46.00
2018-03-24T12:43:34.430Z,26.33
2018-03-24T12:46:08.215Z,58.20
2018-03-24T12:48:42.920Z,57.37
2018-03-24T12:51:16.954Z,34.87
2018-03-24T12:53:51.061Z,31.47
2018-03-24T12:56:25.563Z,23.70
2018-03-24T12:59:00.130Z,16.23
2018-03-24T13:01:34.776Z,24.13
2018-03-24T13:04:10.090Z,24.90
2018-03-24T13:06:44.049Z,28.50
2018-03-24T13:09:18.822Z,17.80
2018-03-24T13:11:53.901Z,19.53
2018-03-24T13:14:27.978Z,19.13
2018-03-24T13:17:03.402Z,16.77
2018-03-24T13:19:37.719Z,17.70
2018-03-24T13:22:13.279Z,23.50
2018-03-24T13:24:48.191Z,19.73
2018-03-24T13:27:22.264Z,20.03
2018-03-24T13:29:56.430Z,15.17
2018-03-24T13:32:30.097Z,17.13
2018-03-24T13:35:04.039Z,15.37
2018-03-24T13:37:37.881Z,19.93
2018-03-24T13:40:16.731Z,16.60
2018-03-24T13:42:52.071Z,12.93
2018-03-24T13:45:26.895Z,17.13
2018-03-24T13:48:01.776Z,18.33
2018-03-24T13:50:37.087Z,15.03
2018-03-24T13:53:12.400Z,13.30
2018-03-24T13:55:46.851Z,16.23
2018-03-24T13:58:21.846Z,16.10
2018-03-24T14:00:56.191Z,16.43
2018-03-24T14:03:30.689Z,16.43
2018-03-24T14:06:04.777Z,15.37
2018-03-24T14:08:38.638Z,14.87
2018-03-24T14:11:13.413Z,14.63
2018-03-24T14:13:48.179Z,15.57
2018-03-24T14:16:23.246Z,14.73
2018-03-24T14:18:57.661Z,15.33
2018-03-24T14:21:31.769Z,12.88
2018-03-24T14:24:06.902Z,13.37
2018-03-24T14:26:41.094Z,12.85
2018-03-24T14:29:15.245Z,14.33
2018-03-24T14:31:49.485Z,14.53
2018-03-24T14:34:23.165Z,13.63
2018-03-24T14:36:57.813Z,10.10
2018-03-24T14:39:31.665Z,11.70
2018-03-24T14:42:07.486Z,21.73
2018-03-24T14:44:41.243Z,13.35
2018-03-24T14:47:15.439Z,10.97
2018-03-24T14:49:49.175Z,10.33
2018-03-24T14:52:23.703Z,11.47
2018-03-24T14:54:58.289Z,12.07
2018-03-24T14:57:34.367Z,9.43
2018-03-24T15:00:08.498Z,11.70
2018-03-24T15:02:44.026Z,37.30
2018-03-24T15:05:18.162Z,29.20
2018-03-24T15:07:53.069Z,71.50
2018-03-24T15:10:28.069Z,98.23
2018-03-24T15:13:03.237Z,80.87
2018-03-24T15:15:37.503Z,88.17
2018-03-24T15:18:11.570Z,38.63
2018-03-24T15:20:46.006Z,40.67
2018-03-24T15:23:20.710Z,20.40
2018-03-24T15:25:54.775Z,48.70
2018-03-24T15:28:29.197Z,39.27
2018-03-24T15:34:21.947Z,42.50
2018-03-24T15:36:55.863Z,26.80
2018-03-24T15:39:29.866Z,16.67
2018-03-24T15:42:04.217Z,11.10
2018-03-24T15:44:39.194Z,16.13
2018-03-24T15:47:13.706Z,16.50
2018-03-24T15:49:48.837Z,16.07
2018-03-24T15:52:22.650Z,15.73
2018-03-24T15:54:56.491Z,15.93
2018-03-24T15:57:30.308Z,15.80
2018-03-24T16:00:04.218Z,15.47
2018-03-24T16:02:37.881Z,16.37
2018-03-24T16:05:11.999Z,15.67
2018-03-24T16:07:46.121Z,11.90
2018-03-24T16:10:20.346Z,15.50
2018-03-24T16:12:54.232Z,13.53
2018-03-24T16:15:28.843Z,13.17
2018-03-24T16:18:03.374Z,13.13
2018-03-24T16:20:37.590Z,15.13
2018-03-24T16:23:12.266Z,15.77
2018-03-24T16:25:46.527Z,13.47
2018-03-24T16:28:21.731Z,14.07
2018-03-24T16:30:55.915Z,10.20
2018-03-24T16:33:31.183Z,8.87
2018-03-24T16:36:05.387Z,10.23
2018-03-24T16:38:39.243Z,10.20
2018-03-24T16:41:13.157Z,18.50
2018-03-24T16:43:47.055Z,11.73
2018-03-24T16:46:22.513Z,9.30
2018-03-24T16:48:57.227Z,11.07
2018-03-24T16:51:31.224Z,11.83
2018-03-24T16:54:05.819Z,9.77
2018-03-24T16:56:40.680Z,10.98
2018-03-24T16:59:15.388Z,11.27
2018-03-24T17:01:57.798Z,12.20
2018-03-24T17:04:32.229Z,12.43
2018-03-24T17:07:08.603Z,9.37
2018-03-24T17:09:42.528Z,10.53
2018-03-24T17:12:17.139Z,10.73
2018-03-24T17:14:51.262Z,11.98
2018-03-24T17:17:26.081Z,12.17
2018-03-24T17:20:01.182Z,12.20
2018-03-24T17:22:35.092Z,13.27
2018-03-24T17:25:08.742Z,19.23
2018-03-24T17:27:44.562Z,13.30
2018-03-24T17:30:19.673Z,14.00
2018-03-24T17:32:53.959Z,17.80
2018-03-24T17:35:28.595Z,15.83
2018-03-24T17:38:02.626Z,13.70
2018-03-24T17:40:37.161Z,14.43
2018-03-24T17:43:11.842Z,15.47
2018-03-24T17:45:46.403Z,13.30
2018-03-24T17:48:20.314Z,11.77
2018-03-24T17:50:53.932Z,12.83
2018-03-24T17:53:28.051Z,13.65
2018-03-24T17:56:02.682Z,13.50
2018-03-24T17:58:36.725Z,14.17
2018-03-24T18:01:10.503Z,16.13
2018-03-24T18:03:44.450Z,16.97
2018-03-24T18:06:18.304Z,13.80
2018-03-24T18:08:53.150Z,14.57
2018-03-24T18:11:28.399Z,13.00
2018-03-24T18:14:02.390Z,13.90
2018-03-24T18:16:36.256Z,16.67
2018-03-24T18:19:10.340Z,13.13
2018-03-24T18:21:45.517Z,15.07
2018-03-24T18:24:19.635Z,14.03
2018-03-24T18:26:53.533Z,13.90
2018-03-24T18:29:28.518Z,30.27
2018-03-24T18:32:02.938Z,16.17
2018-03-24T18:34:36.982Z,13.37
2018-03-24T18:37:10.802Z,13.40
2018-03-24T18:39:45.675Z,13.57
2018-03-24T18:42:20.198Z,15.13
2018-03-24T18:44:54.731Z,16.00
2018-03-24T18:47:28.750Z,15.53
2018-03-24T18:50:03.354Z,16.03
2018-03-24T18:52:37.249Z,16.23
2018-03-24T18:55:11.912Z,15.33
2018-03-24T18:57:46.648Z,22.53
2018-03-24T19:00:21.025Z,22.33
2018-03-24T19:02:54.705Z,17.77
2018-03-24T19:05:28.438Z,16.40
2018-03-24T19:08:02.215Z,25.57
2018-03-24T19:10:36.368Z,16.17
2018-03-24T19:13:10.854Z,15.87
2018-03-24T19:15:45.134Z,18.63
2018-03-24T19:18:18.880Z,20.00
2018-03-24T19:20:53.496Z,17.20
2018-03-24T19:23:28.228Z,20.93
2018-03-24T19:26:02.640Z,17.53
2018-03-24T19:28:36.680Z,14.80
2018-03-24T19:31:11.098Z,17.57
2018-03-24T19:33:44.935Z,15.00
2018-03-24T19:36:19.355Z,16.20
2018-03-24T19:38:53.679Z,17.87
2018-03-24T19:41:27.468Z,15.33
2018-03-24T19:44:01.103Z,15.43
2018-03-24T19:46:35.896Z,17.93
2018-03-24T19:49:09.994Z,17.90
2018-03-24T19:51:44.327Z,15.77
2018-03-24T19:54:19.901Z,17.00
2018-03-24T19:56:55.306Z,19.03
2018-03-24T19:59:30.283Z,15.83
2018-03-24T20:02:04.314Z,15.37
2018-03-24T20:04:38.878Z,17.00
2018-03-24T20:07:13.916Z,14.37
2018-03-24T20:09:50.207Z,13.90
2018-03-24T20:12:24.268Z,18.27
2018-03-24T20:14:58.720Z,15.30
2018-03-24T20:17:33.841Z,16.50
2018-03-24T20:20:09.100Z,21.23
2018-03-24T20:22:43.992Z,16.50
2018-03-24T20:25:18.616Z,18.43
2018-03-24T20:27:53.390Z,21.73
2018-03-24T20:30:34.081Z,15.07
2018-03-24T20:33:07.852Z,15.30
2018-03-24T20:35:41.642Z,18.47
2018-03-24T20:38:16.080Z,23.43
2018-03-24T20:40:50.209Z,15.73
2018-03-24T20:43:25.729Z,17.40
2018-03-24T20:46:00.851Z,20.77
2018-03-24T20:48:35.380Z,18.30
2018-03-24T20:51:10.001Z,24.17
2018-03-24T20:56:24.743Z,19.23
2018-03-24T20:58:59.350Z,19.70
2018-03-24T21:01:34.206Z,20.00
2018-03-24T21:04:08.198Z,16.73
2018-03-24T21:06:42.626Z,20.13
2018-03-24T21:09:17.075Z,16.90
2018-03-24T21:11:52.090Z,18.03
2018-03-24T21:14:26.749Z,18.57
2018-03-24T21:17:00.679Z,21.67
2018-03-24T21:19:35.481Z,19.13
2018-03-24T21:22:10.913Z,21.00
2018-03-24T21:24:44.973Z,20.93
2018-03-24T21:27:19.935Z,18.90
2018-03-24T21:29:54.972Z,21.40
2018-03-24T21:32:28.814Z,23.53
2018-03-24T21:35:03.730Z,23.53
2018-03-24T21:37:39.001Z,22.53
2018-03-24T21:40:13.715Z,22.70
2018-03-24T21:42:48.490Z,25.50
2018-03-24T21:45:22.513Z,22.73
2018-03-24T21:47:56.193Z,26.53
2018-03-24T21:50:34.445Z,21.17
2018-03-24T21:53:09.685Z,23.33
2018-03-24T21:55:43.954Z,24.93
2018-03-24T21:58:19.238Z,21.23
2018-03-24T22:00:54.474Z,22.47
2018-03-24T22:03:29.001Z,30.93
2018-03-24T22:06:06.609Z,26.00
2018-03-24T22:08:41.201Z,26.50
2018-03-24T22:11:16.017Z,23.37
2018-03-24T22:13:50.971Z,28.70
2018-03-24T22:16:25.823Z,25.83
2018-03-24T22:19:00.354Z,31.27
2018-03-24T22:21:35.274Z,28.40
2018-03-24T22:24:09.082Z,32.03
2018-03-24T22:26:43.080Z,28.53
2018-03-24T22:29:17.652Z,33.87
2018-03-24T22:31:52.532Z,31.33
2018-03-24T22:34:28.006Z,29.30
2018-03-24T22:37:01.784Z,30.87
2018-03-24T22:39:36.321Z,32.50
2018-03-24T22:42:11.655Z,29.13
2018-03-24T22:44:45.781Z,27.53
2018-03-24T22:47:20.308Z,30.47
2018-03-24T22:49:55.108Z,28.23
2018-03-24T22:52:29.950Z,29.07
2018-03-24T22:55:04.778Z,30.00
2018-03-24T22:57:39.825Z,25.60
2018-03-24T23:00:15.145Z,25.83
2018-03-24T23:02:49.382Z,26.83
2018-03-24T23:05:24.582Z,30.53
2018-03-24T23:07:59.547Z,28.90
2018-03-24T23:10:33.440Z,27.87
2018-03-24T23:13:07.999Z,25.63
2018-03-24T23:15:42.050Z,29.23
2018-03-24T23:18:16.628Z,24.93
2018-03-24T23:20:50.477Z,30.20
2018-03-24T23:23:25.362Z,31.30
2018-03-24T23:25:59.837Z,31.57
2018-03-24T23:28:34.285Z,29.30
2018-03-24T23:31:08.920Z,25.97
2018-03-24T23:33:43.021Z,28.13
2018-03-24T23:36:18.456Z,25.80
2018-03-24T23:38:53.214Z,26.43
2018-03-24T23:41:28.889Z,27.67
2018-03-24T23:44:03.996Z,28.00
2018-03-24T23:46:39.413Z,26.20
2018-03-24T23:49:14.458Z,28.30
2018-03-24T23:51:49.875Z,29.07
2018-03-24T23:54:24.932Z,28.10
2018-03-24T23:56:59.626Z,33.50
2018-03-24T23:59:33.914Z,27.47
